Hlavní strana
METAR-TAF:

METAR-TAF

Letiště :

Växjö, Švédsko

zeměpisná šířka: 56-51N, zeměpisná délka: 014-50E, výška: 199 m

Aktuální stav počasí

Zpráva byla vytvořena před 19 minutami, v 09:50 UTC
Severní vítr 10 kt
Teplota 2°C
Vlhkost vzduchu 60%
Tlak 1016 hPa
Viditelnost 10 km a více
Polojasno ve výšce 2800 ft

METAR: ESMX 040950Z 35010KT 9999 SCT028 02/M05 Q1016

Čas: 11:09 (10:09 UTC)

Předpověď počasí

Zpráva byla vytvořena před 1 hodinou a 39 minutami, v 08:30 UTC
Předpověď platná od 04 v 09 UTC do 04 v 15 UTC
Severoseverozápadní vítr 8 kt
Viditelnost 10 km a více
Polojasno ve výšce 3000 ft

TAF: ESMX 040830Z 0409/0415 33008KT 9999 SCT030

Stav a předpovědi počasí z více než 4 000 letišť (zprávy METAR a TAF).

Červené a žluté tečky na mapě představují dostupné meteorologické stanice.

Když kurzor umístíte na tečku, zobrazí se název stanice.

Pak kliknutím zobrazíte stav a předpověď počasí.

Chcete-li změnit mapu, kliknutím na zelené tlačítko se znaménkem +mapu přiblížíte, kliknutím na zelené tlačítko se znaménkem – mapu oddálíte a kliknutím na zelené šipky přejdete na sousední mapy.


METAR-TAF: